createdAt,value
2023-02-09T00:01:27.516Z,97032.63
2023-02-09T00:03:54.656Z,97034.66
2023-02-09T00:06:23.733Z,96974.09
2023-02-09T00:08:51.220Z,97035.06
2023-02-09T00:11:43.896Z,97035.81
2023-02-09T00:14:12.058Z,97016.31
2023-02-09T00:16:39.951Z,97037.94
2023-02-09T00:19:07.208Z,97023.66
2023-02-09T00:21:34.201Z,97009.06
2023-02-09T00:24:01.289Z,97010.19
2023-02-09T00:26:28.258Z,97023.75
2023-02-09T00:28:55.366Z,97011.28
2023-02-09T00:31:22.546Z,97024.75
2023-02-09T00:33:49.621Z,96997.09
2023-02-09T00:36:17.697Z,97026.78
2023-02-09T00:38:44.895Z,97017.53
2023-02-09T00:41:13.529Z,97010.66
2023-02-09T00:43:40.980Z,97019.09
2023-02-09T00:46:08.375Z,97012.97
2023-02-09T00:48:36.685Z,96992.09
2023-02-09T00:51:03.701Z,96944.78
2023-02-09T00:53:30.790Z,96995.44
2023-02-09T00:56:01.016Z,96978.06
2023-02-09T00:58:28.218Z,96991.34
2023-02-09T01:00:55.154Z,96994.59
2023-02-09T01:03:24.825Z,96987.28
2023-02-09T01:05:53.419Z,96979.75
2023-02-09T01:08:20.339Z,96990.41
2023-02-09T01:10:47.612Z,96964.72
2023-02-09T01:13:15.511Z,96958.88
2023-02-09T01:15:42.538Z,96966.19
2023-02-09T01:18:09.379Z,96983.28
2023-02-09T01:20:36.474Z,96955.41
2023-02-09T01:23:03.485Z,96953.63
2023-02-09T01:25:30.822Z,96968.19
2023-02-09T01:27:58.100Z,96960.78
2023-02-09T01:30:25.222Z,96967.19
2023-02-09T01:32:52.421Z,96973.19
2023-02-09T01:35:20.038Z,96955.59
2023-02-09T01:37:47.295Z,96977.28
2023-02-09T01:40:15.131Z,96960.41
2023-02-09T01:42:42.073Z,96958.09
2023-02-09T01:45:21.318Z,96965.81
2023-02-09T01:48:00.442Z,96975.00
2023-02-09T01:50:30.909Z,96939.66
2023-02-09T01:52:58.093Z,96964.59
2023-02-09T01:55:29.901Z,96962.53
2023-02-09T01:58:05.827Z,96971.59
2023-02-09T02:00:33.084Z,96882.28
2023-02-09T02:03:04.450Z,96967.84
2023-02-09T02:05:37.415Z,96960.16
2023-02-09T02:08:26.908Z,96967.09
2023-02-09T02:10:54.502Z,96959.53
2023-02-09T02:13:22.223Z,96952.50
2023-02-09T02:15:56.346Z,96963.72
2023-02-09T02:18:57.186Z,96966.56
2023-02-09T02:21:42.337Z,96951.81
2023-02-09T02:24:28.505Z,96958.50
2023-02-09T02:26:58.147Z,96959.53
2023-02-09T02:29:52.859Z,96890.69
2023-02-09T02:32:32.961Z,96958.88
2023-02-09T02:35:28.017Z,96957.19
2023-02-09T02:38:04.144Z,96953.19
2023-02-09T02:40:31.172Z,96949.50
2023-02-09T02:43:09.241Z,96947.56
2023-02-09T02:45:56.450Z,96943.66
2023-02-09T02:48:47.042Z,96933.56
2023-02-09T02:51:38.293Z,96937.84
2023-02-09T02:54:17.962Z,96931.16
2023-02-09T02:56:51.368Z,96929.19
2023-02-09T02:59:23.957Z,96914.06
2023-02-09T03:02:00.135Z,96892.19
2023-02-09T03:04:29.180Z,96915.38
2023-02-09T03:06:56.102Z,96900.63
2023-02-09T03:09:23.559Z,96921.69
2023-02-09T03:11:56.188Z,96917.31
2023-02-09T03:14:48.071Z,96912.13
2023-02-09T03:17:33.674Z,96933.38
2023-02-09T03:20:26.823Z,96920.81
2023-02-09T03:23:02.445Z,96916.66
2023-02-09T03:25:37.727Z,96919.47
2023-02-09T03:28:07.387Z,96894.44
2023-02-09T03:30:35.690Z,96923.09
2023-02-09T03:33:05.152Z,96896.53
2023-02-09T03:35:38.793Z,96907.19
2023-02-09T03:38:08.530Z,96907.00
2023-02-09T03:40:35.576Z,96892.22
2023-02-09T03:43:02.559Z,96911.72
2023-02-09T03:45:29.483Z,96918.00
2023-02-09T03:47:56.569Z,96891.28
2023-02-09T03:50:23.716Z,96886.63
2023-02-09T03:52:50.991Z,96914.00
2023-02-09T03:55:18.167Z,96874.59
2023-02-09T03:57:45.469Z,96911.59
2023-02-09T04:00:13.148Z,96901.56
2023-02-09T04:02:42.768Z,96924.28
2023-02-09T04:05:10.294Z,96917.53
2023-02-09T04:07:40.044Z,96899.81
2023-02-09T04:10:07.404Z,96919.50
2023-02-09T04:12:34.336Z,96890.75
2023-02-09T04:15:01.889Z,96880.16
2023-02-09T04:17:31.645Z,96899.72
2023-02-09T04:19:59.203Z,96875.13
2023-02-09T04:22:26.176Z,96919.19
2023-02-09T04:25:11.890Z,96837.88
2023-02-09T04:27:39.720Z,96909.25
2023-02-09T04:30:07.152Z,96912.69
2023-02-09T04:32:34.169Z,96911.97
2023-02-09T04:35:01.034Z,96899.38
2023-02-09T04:37:30.006Z,96888.44
2023-02-09T04:39:56.921Z,96848.16
2023-02-09T04:42:24.853Z,96915.50
2023-02-09T04:44:51.829Z,96915.03
2023-02-09T04:47:37.225Z,96907.00
2023-02-09T04:50:04.448Z,96906.22
2023-02-09T04:52:31.424Z,96917.63
2023-02-09T04:54:58.301Z,96875.31
2023-02-09T04:57:43.761Z,96900.19
2023-02-09T05:00:11.544Z,96894.19
2023-02-09T05:02:38.477Z,96900.78
2023-02-09T05:05:05.708Z,96845.69
2023-02-09T05:07:32.609Z,96912.34
2023-02-09T05:09:59.458Z,96869.34
2023-02-09T05:12:26.618Z,96900.44
2023-02-09T05:14:53.578Z,96907.47
2023-02-09T05:17:21.292Z,96884.34
2023-02-09T05:19:48.859Z,96921.94
2023-02-09T05:22:16.101Z,96883.53
2023-02-09T05:24:43.025Z,96902.09
2023-02-09T05:27:10.143Z,96906.28
2023-02-09T05:29:37.122Z,96905.00
2023-02-09T05:32:04.413Z,96915.88
2023-02-09T05:34:31.356Z,96890.22
2023-02-09T05:36:58.579Z,96927.03
2023-02-09T05:39:25.481Z,96907.16
2023-02-09T05:42:11.269Z,96890.94
2023-02-09T05:44:38.402Z,96924.31
2023-02-09T05:47:05.361Z,96931.13
2023-02-09T05:49:32.331Z,96938.91
2023-02-09T05:51:59.258Z,96923.94
2023-02-09T05:54:26.524Z,96927.88
2023-02-09T05:56:53.432Z,96929.72
2023-02-09T05:59:20.647Z,96933.91
2023-02-09T06:01:47.613Z,96862.59
2023-02-09T06:04:14.533Z,96927.97
2023-02-09T06:06:41.565Z,96940.63
2023-02-09T06:09:08.604Z,96912.81
2023-02-09T06:11:35.793Z,96932.78
2023-02-09T06:14:02.741Z,96933.63
2023-02-09T06:16:30.060Z,96936.97
2023-02-09T06:18:56.912Z,96930.69
2023-02-09T06:21:23.759Z,96921.50
2023-02-09T06:23:50.691Z,96902.72
2023-02-09T06:26:18.351Z,96906.91
2023-02-09T06:28:46.223Z,96917.03
2023-02-09T06:31:13.678Z,96902.75
2023-02-09T06:33:40.702Z,96907.50
2023-02-09T06:36:08.783Z,96908.34
2023-02-09T06:38:37.666Z,96923.91
2023-02-09T06:41:05.660Z,96918.06
2023-02-09T06:43:32.643Z,96858.34
2023-02-09T06:46:08.554Z,96914.72
2023-02-09T06:48:36.590Z,96861.94
2023-02-09T06:51:11.336Z,96887.81
2023-02-09T06:53:39.853Z,96907.19
2023-02-09T06:56:07.319Z,96900.25
2023-02-09T06:58:35.033Z,96894.78
2023-02-09T07:01:07.198Z,96847.13
2023-02-09T07:03:34.463Z,96904.81
2023-02-09T07:06:09.256Z,96880.78
2023-02-09T07:08:36.996Z,96880.28
2023-02-09T07:11:06.320Z,96865.00
2023-02-09T07:13:33.587Z,96883.41
2023-02-09T07:16:02.360Z,96898.13
2023-02-09T07:18:29.673Z,96892.47
2023-02-09T07:20:59.124Z,96815.66
2023-02-09T07:23:26.272Z,96904.38
2023-02-09T07:25:53.727Z,96890.75
2023-02-09T07:28:21.138Z,96888.59
2023-02-09T07:30:52.602Z,96891.16
2023-02-09T07:33:21.013Z,96884.38
2023-02-09T07:35:48.877Z,96837.44
2023-02-09T07:38:16.410Z,96875.47
2023-02-09T07:40:46.782Z,96846.09
2023-02-09T07:43:14.532Z,96873.31
2023-02-09T07:45:42.061Z,96847.34
2023-02-09T07:48:13.510Z,96877.06
2023-02-09T07:50:40.686Z,96850.19
2023-02-09T07:53:07.626Z,96860.63
2023-02-09T07:55:34.813Z,96859.25
2023-02-09T07:58:01.852Z,96850.22
2023-02-09T08:00:29.963Z,96818.88
2023-02-09T08:02:57.196Z,96792.50
2023-02-09T08:05:35.134Z,96794.69
2023-02-09T08:08:02.444Z,96848.13
2023-02-09T08:10:31.341Z,96828.72
2023-02-09T08:13:00.682Z,96859.53
2023-02-09T08:15:49.876Z,96869.28
2023-02-09T08:18:24.312Z,96847.03
2023-02-09T08:20:53.248Z,96862.81
2023-02-09T08:23:32.899Z,96853.16
2023-02-09T08:26:05.923Z,96883.31
2023-02-09T08:28:43.653Z,96880.91
2023-02-09T08:31:16.572Z,96865.44
2023-02-09T08:33:44.955Z,96797.63
2023-02-09T08:36:13.794Z,96857.03
2023-02-09T08:38:40.858Z,96849.56
2023-02-09T08:41:10.785Z,96873.81
2023-02-09T08:43:38.067Z,96825.94
2023-02-09T08:46:11.761Z,96843.16
2023-02-09T08:48:45.461Z,96873.63
2023-02-09T08:51:14.745Z,96877.00
2023-02-09T08:53:43.328Z,96869.91
2023-02-09T08:56:10.592Z,96877.59
2023-02-09T08:58:37.669Z,96829.16
2023-02-09T09:01:05.629Z,96829.97
2023-02-09T09:03:33.369Z,96857.94
2023-02-09T09:06:02.784Z,96862.09
2023-02-09T09:08:32.548Z,96886.75
2023-02-09T09:11:00.473Z,96874.38
2023-02-09T09:13:28.127Z,96886.13
2023-02-09T09:15:55.500Z,96894.25
2023-02-09T09:18:24.414Z,96848.94
2023-02-09T09:20:52.107Z,96892.59
2023-02-09T09:23:21.180Z,96844.59
2023-02-09T09:25:48.652Z,96894.03
2023-02-09T09:28:26.667Z,96863.00
2023-02-09T09:30:54.217Z,96860.03
2023-02-09T09:33:21.880Z,96679.97
2023-02-09T09:35:48.864Z,96839.13
2023-02-09T09:38:16.380Z,96888.09
2023-02-09T09:40:45.413Z,96884.88
2023-02-09T09:43:22.762Z,96889.03
2023-02-09T09:45:50.669Z,96849.94
2023-02-09T09:48:32.289Z,96846.22
2023-02-09T09:51:10.180Z,96886.19
2023-02-09T09:53:38.803Z,96864.19
2023-02-09T09:56:08.960Z,96863.69
2023-02-09T09:58:41.377Z,96879.13
2023-02-09T10:01:16.865Z,96880.44
2023-02-09T10:03:44.683Z,96846.56
2023-02-09T10:06:21.971Z,96790.41
2023-02-09T10:08:52.064Z,96866.28
2023-02-09T10:11:28.751Z,96840.94
2023-02-09T10:13:59.491Z,96861.66
2023-02-09T10:16:34.654Z,96830.84
2023-02-09T10:19:04.483Z,96847.81
2023-02-09T10:21:35.979Z,96857.66
2023-02-09T10:24:11.779Z,96844.53
2023-02-09T10:26:40.617Z,96807.94
2023-02-09T10:29:10.924Z,96849.25
2023-02-09T10:31:50.525Z,96819.34
2023-02-09T10:34:21.423Z,96832.09
2023-02-09T10:37:05.634Z,96831.91
2023-02-09T10:39:35.606Z,96835.31
2023-02-09T10:42:27.608Z,96826.75
2023-02-09T10:44:59.876Z,96803.03
2023-02-09T10:47:30.241Z,96832.41
2023-02-09T10:50:04.752Z,96838.13
2023-02-09T10:52:37.524Z,96826.00
2023-02-09T10:55:16.023Z,96833.63
2023-02-09T10:57:42.965Z,96807.53
2023-02-09T11:00:27.847Z,96819.47
2023-02-09T11:03:03.925Z,96820.50
2023-02-09T11:05:34.021Z,96815.41
2023-02-09T11:08:23.175Z,96809.06
2023-02-09T11:11:02.738Z,96804.53
2023-02-09T11:13:33.331Z,96618.81
2023-02-09T11:16:40.738Z,96804.41
2023-02-09T11:19:27.885Z,96808.69
2023-02-09T11:22:05.703Z,96795.97
2023-02-09T11:25:14.400Z,96790.88
2023-02-09T11:28:03.114Z,96791.19
2023-02-09T11:30:50.739Z,96759.63
2023-02-09T11:33:47.246Z,96787.53
2023-02-09T11:36:33.331Z,96784.19
2023-02-09T11:39:03.216Z,96773.81
2023-02-09T11:41:58.937Z,96778.16
2023-02-09T11:44:32.870Z,96743.88
2023-02-09T11:47:05.234Z,96775.13
2023-02-09T11:49:49.496Z,96696.31
2023-02-09T11:52:35.760Z,96753.72
2023-02-09T11:55:20.738Z,96682.69
2023-02-09T11:58:06.706Z,96738.50
2023-02-09T12:00:56.218Z,96729.25
2023-02-09T12:03:24.905Z,96749.28
2023-02-09T12:05:52.369Z,96744.31
2023-02-09T12:08:38.505Z,96744.16
2023-02-09T12:11:45.464Z,96737.78
2023-02-09T12:15:00.348Z,96742.38
2023-02-09T12:17:43.492Z,96732.25
2023-02-09T12:20:40.467Z,96727.13
2023-02-09T12:23:23.799Z,96708.06
2023-02-09T12:26:12.978Z,96728.25
2023-02-09T12:28:43.538Z,96730.19
2023-02-09T12:31:26.160Z,96725.34
2023-02-09T12:33:59.393Z,96722.97
2023-02-09T12:36:32.529Z,96718.28
2023-02-09T12:39:05.074Z,96714.56
2023-02-09T12:41:35.342Z,96708.31
2023-02-09T12:44:25.222Z,96716.31
2023-02-09T12:46:55.793Z,96679.03
2023-02-09T12:49:29.118Z,96699.00
2023-02-09T12:52:02.173Z,96697.78
2023-02-09T12:54:38.075Z,96708.50
2023-02-09T12:57:17.997Z,96705.22
2023-02-09T12:59:51.160Z,96701.22
2023-02-09T13:02:33.830Z,96707.44
2023-02-09T13:05:08.045Z,96707.28
2023-02-09T13:07:58.703Z,96675.22
2023-02-09T13:10:41.267Z,96673.69
2023-02-09T13:13:11.272Z,96697.47
2023-02-09T13:15:50.953Z,96688.22
2023-02-09T13:18:55.521Z,96694.84
2023-02-09T13:21:31.601Z,96699.19
2023-02-09T13:24:13.099Z,96686.63
2023-02-09T13:26:53.630Z,96690.00
2023-02-09T13:29:26.265Z,96679.56
2023-02-09T13:32:10.541Z,96687.34
2023-02-09T13:34:56.006Z,96693.59
2023-02-09T13:37:45.040Z,96687.41
2023-02-09T13:40:25.158Z,96666.78
2023-02-09T13:42:57.254Z,96694.94
2023-02-09T13:45:27.095Z,96695.94
2023-02-09T13:47:56.195Z,96672.25
2023-02-09T13:50:26.130Z,96669.63
2023-02-09T13:52:53.256Z,96678.13
2023-02-09T13:55:21.336Z,96677.59
2023-02-09T13:58:18.040Z,96649.22
2023-02-09T14:00:52.439Z,96507.06
2023-02-09T14:03:58.935Z,96680.44
2023-02-09T14:06:28.778Z,96672.34
2023-02-09T14:09:00.043Z,96677.09
2023-02-09T14:11:43.137Z,96681.72
2023-02-09T14:14:18.037Z,96664.84
2023-02-09T14:16:53.407Z,96670.72
2023-02-09T14:19:33.431Z,96671.09
2023-02-09T14:22:00.250Z,96669.41
2023-02-09T14:24:28.975Z,96670.25
2023-02-09T14:27:16.722Z,96675.78
2023-02-09T14:29:47.668Z,96676.91
2023-02-09T14:32:32.991Z,96679.47
2023-02-09T14:35:20.503Z,96676.56
2023-02-09T14:37:50.127Z,96674.50
2023-02-09T14:40:31.726Z,96671.03
2023-02-09T14:43:10.778Z,96671.50
2023-02-09T14:45:40.931Z,96677.38
2023-02-09T14:48:17.939Z,96670.44
2023-02-09T14:50:45.176Z,96667.13
2023-02-09T14:53:14.462Z,96675.06
2023-02-09T14:55:41.728Z,96671.56
2023-02-09T14:58:12.761Z,96655.69
2023-02-09T15:00:39.701Z,96661.06
2023-02-09T15:03:06.800Z,96683.06
2023-02-09T15:05:33.780Z,96687.38
2023-02-09T15:08:05.795Z,96557.19
2023-02-09T15:10:36.173Z,96690.69
2023-02-09T15:13:04.266Z,96692.91
2023-02-09T15:15:33.235Z,96693.59
2023-02-09T15:18:00.650Z,96694.13
2023-02-09T15:20:29.399Z,96697.06
2023-02-09T15:22:56.357Z,96689.19
2023-02-09T15:25:25.349Z,96700.78
2023-02-09T15:27:56.767Z,96707.69
2023-02-09T15:30:31.778Z,96712.94
2023-02-09T15:32:59.440Z,96679.63
2023-02-09T15:35:27.518Z,96719.66
2023-02-09T15:37:59.714Z,96694.22
2023-02-09T15:40:50.021Z,96705.66
2023-02-09T15:43:39.283Z,96691.97
2023-02-09T15:46:26.575Z,96735.31
2023-02-09T15:48:53.543Z,96748.75
2023-02-09T15:51:22.125Z,96751.50
2023-02-09T15:53:49.335Z,96714.84
2023-02-09T15:56:16.433Z,96666.19
2023-02-09T15:58:45.372Z,96707.09
2023-02-09T16:01:14.910Z,96731.38
2023-02-09T16:03:42.664Z,96723.47
2023-02-09T16:06:21.665Z,96735.22
2023-02-09T16:08:49.857Z,96722.31
2023-02-09T16:11:17.634Z,96744.50
2023-02-09T16:13:44.560Z,96740.22
2023-02-09T16:16:17.252Z,96683.34
2023-02-09T16:18:45.966Z,96725.94
2023-02-09T16:21:26.737Z,96743.75
2023-02-09T16:23:58.149Z,96725.94
2023-02-09T16:26:27.364Z,96728.78
2023-02-09T16:28:55.120Z,96727.53
2023-02-09T16:31:23.621Z,96706.66
2023-02-09T16:33:51.457Z,96730.28
2023-02-09T16:36:31.825Z,96732.53
2023-02-09T16:39:01.226Z,96745.56
2023-02-09T16:41:46.864Z,96743.38
2023-02-09T16:44:26.373Z,96733.56
2023-02-09T16:46:56.771Z,96758.19
2023-02-09T16:49:43.928Z,96762.66
2023-02-09T16:52:20.865Z,96754.34
2023-02-09T16:54:51.782Z,96760.19
2023-02-09T16:57:21.195Z,96634.41
2023-02-09T16:59:48.077Z,96751.53
2023-02-09T17:02:36.938Z,96746.53
2023-02-09T17:05:25.730Z,96759.97
2023-02-09T17:08:01.989Z,96753.97
2023-02-09T17:10:32.406Z,96756.47
2023-02-09T17:13:04.866Z,96743.97
2023-02-09T17:15:39.325Z,96740.31
2023-02-09T17:18:09.697Z,96747.78
2023-02-09T17:20:42.067Z,96739.84
2023-02-09T17:23:22.938Z,96763.16
2023-02-09T17:26:01.005Z,96716.84
2023-02-09T17:28:31.326Z,96744.88
2023-02-09T17:31:04.678Z,96725.50
2023-02-09T17:33:34.323Z,96762.00
2023-02-09T17:38:49.739Z,96749.00
2023-02-09T17:41:33.760Z,96741.44
2023-02-09T17:44:24.309Z,96760.16
2023-02-09T17:46:59.099Z,96739.00
2023-02-09T17:49:26.187Z,96748.41
2023-02-09T17:51:55.935Z,96740.56
2023-02-09T17:54:23.670Z,96715.84
2023-02-09T17:56:50.798Z,96757.38
2023-02-09T17:59:20.356Z,96747.31
2023-02-09T18:01:51.222Z,96756.41
2023-02-09T18:04:22.726Z,96744.53
2023-02-09T18:06:49.956Z,96745.53
2023-02-09T18:09:17.036Z,96588.06
2023-02-09T18:11:54.341Z,96754.41
2023-02-09T18:14:23.109Z,96754.22
2023-02-09T18:16:50.994Z,96746.19
2023-02-09T18:19:18.353Z,96709.38
2023-02-09T18:22:03.209Z,96728.78
2023-02-09T18:24:35.236Z,96739.88
2023-02-09T18:27:03.385Z,96759.50
2023-02-09T18:29:30.767Z,96755.13
2023-02-09T18:32:01.046Z,96741.00
2023-02-09T18:34:30.996Z,96754.28
2023-02-09T18:36:58.293Z,96676.00
2023-02-09T18:39:25.457Z,96733.03
2023-02-09T18:41:55.121Z,96746.59
2023-02-09T18:44:29.004Z,96677.19
2023-02-09T18:46:57.828Z,96687.28
2023-02-09T18:49:26.056Z,96751.38
2023-02-09T18:51:53.336Z,96762.69
2023-02-09T18:54:20.330Z,96744.84
2023-02-09T18:56:47.665Z,96739.03
2023-02-09T18:59:14.707Z,96761.13
2023-02-09T19:01:42.069Z,96758.03
2023-02-09T19:04:11.156Z,96719.63
2023-02-09T19:06:38.993Z,96748.66
2023-02-09T19:09:05.926Z,96751.19
2023-02-09T19:11:32.987Z,96755.19
2023-02-09T19:14:18.875Z,96764.50
2023-02-09T19:16:48.936Z,96760.69
2023-02-09T19:19:16.448Z,96763.50
2023-02-09T19:21:43.554Z,96762.38
2023-02-09T19:24:10.508Z,96756.66
2023-02-09T19:26:37.508Z,96753.09
2023-02-09T19:29:05.004Z,96708.50
2023-02-09T19:31:32.027Z,96747.44
2023-02-09T19:33:59.128Z,96767.59
2023-02-09T19:36:27.957Z,96736.50
2023-02-09T19:38:56.234Z,96759.16
2023-02-09T19:41:25.643Z,96764.41
2023-02-09T19:43:57.438Z,96644.53
2023-02-09T19:46:25.574Z,96768.09
2023-02-09T19:48:53.915Z,96777.13
2023-02-09T19:51:21.910Z,96759.41
2023-02-09T19:53:49.679Z,96769.03
2023-02-09T19:56:19.510Z,96762.38
2023-02-09T19:58:47.004Z,96774.03
2023-02-09T20:01:13.916Z,96775.59
2023-02-09T20:03:41.474Z,96746.38
2023-02-09T20:06:11.867Z,96775.22
2023-02-09T20:08:39.850Z,96690.47
2023-02-09T20:11:08.371Z,96773.56
2023-02-09T20:13:35.970Z,96764.78
2023-02-09T20:16:11.172Z,96767.16
2023-02-09T20:18:38.148Z,96756.56
2023-02-09T20:21:09.632Z,96699.91
2023-02-09T20:23:37.730Z,96761.44
2023-02-09T20:26:17.126Z,96749.91
2023-02-09T20:28:44.622Z,96778.53
2023-02-09T20:31:12.618Z,96731.63
2023-02-09T20:33:40.262Z,96760.84
2023-02-09T20:36:08.996Z,96729.94
2023-02-09T20:38:37.478Z,96767.13
2023-02-09T20:41:13.774Z,96774.72
2023-02-09T20:43:59.841Z,96782.91
2023-02-09T20:46:44.082Z,96792.06
2023-02-09T20:49:14.547Z,96765.56
2023-02-09T20:51:41.471Z,96747.41
2023-02-09T20:54:08.742Z,96728.75
2023-02-09T20:56:36.394Z,96772.22
2023-02-09T20:59:08.442Z,96746.06
2023-02-09T21:01:42.441Z,96769.09
2023-02-09T21:04:09.714Z,96712.06
2023-02-09T21:06:39.197Z,96666.47
2023-02-09T21:09:08.217Z,96764.56
2023-02-09T21:11:35.296Z,96770.25
2023-02-09T21:14:02.440Z,96774.66
2023-02-09T21:16:30.951Z,96728.81
2023-02-09T21:18:58.670Z,96765.16
2023-02-09T21:21:27.120Z,96750.41
2023-02-09T21:23:54.529Z,96739.00
2023-02-09T21:26:24.901Z,96759.34
2023-02-09T21:28:57.209Z,96759.56
2023-02-09T21:31:27.141Z,96761.69
2023-02-09T21:33:54.392Z,96726.38
2023-02-09T21:36:21.410Z,96742.56
2023-02-09T21:38:48.367Z,96745.28
2023-02-09T21:41:40.500Z,96765.16
2023-02-09T21:44:10.038Z,96760.63
2023-02-09T21:46:37.195Z,96766.69
2023-02-09T21:49:05.537Z,96739.81
2023-02-09T21:51:32.456Z,96757.03
2023-02-09T21:53:59.511Z,96756.66
2023-02-09T21:56:26.498Z,96765.78
2023-02-09T21:58:53.512Z,96748.38
2023-02-09T22:01:22.888Z,96752.25
2023-02-09T22:03:52.702Z,96743.69
2023-02-09T22:06:38.180Z,96748.25
2023-02-09T22:09:06.423Z,96762.00
2023-02-09T22:11:33.754Z,96761.28
2023-02-09T22:14:00.829Z,96756.66
2023-02-09T22:16:29.570Z,96768.03
2023-02-09T22:18:59.812Z,96766.88
2023-02-09T22:21:31.320Z,96761.66
2023-02-09T22:24:00.332Z,96758.72
2023-02-09T22:26:27.252Z,96751.31
2023-02-09T22:28:54.249Z,96761.50
2023-02-09T22:31:21.868Z,96758.41
2023-02-09T22:33:54.352Z,96744.41
2023-02-09T22:36:23.456Z,96680.16
2023-02-09T22:38:50.923Z,96757.47
2023-02-09T22:41:23.963Z,96746.25
2023-02-09T22:44:00.476Z,96674.47
2023-02-09T22:46:31.181Z,96758.25
2023-02-09T22:49:01.206Z,96717.81
2023-02-09T22:51:30.191Z,96750.97
2023-02-09T22:53:59.168Z,96770.69
2023-02-09T22:56:29.023Z,96777.78
2023-02-09T22:58:57.709Z,96767.28
2023-02-09T23:01:24.761Z,96772.06
2023-02-09T23:03:52.886Z,96770.41
2023-02-09T23:06:23.507Z,96774.69
2023-02-09T23:08:55.221Z,96782.94
2023-02-09T23:11:22.609Z,96774.50
2023-02-09T23:13:55.062Z,96764.41
2023-02-09T23:16:34.516Z,96765.38
2023-02-09T23:19:03.996Z,96760.94
2023-02-09T23:21:35.256Z,96770.06
2023-02-09T23:24:03.875Z,96782.16
2023-02-09T23:26:31.138Z,96782.78
2023-02-09T23:29:02.550Z,96771.34
2023-02-09T23:31:30.141Z,96723.19
2023-02-09T23:33:57.724Z,96767.59
2023-02-09T23:36:27.971Z,96696.16
2023-02-09T23:38:57.879Z,96784.38
2023-02-09T23:41:25.800Z,96780.75
2023-02-09T23:43:53.963Z,96765.97
2023-02-09T23:46:24.188Z,96799.09
2023-02-09T23:48:55.134Z,96781.31
2023-02-09T23:51:28.677Z,96779.09
2023-02-09T23:53:57.721Z,96785.88
2023-02-09T23:56:25.011Z,96766.63
2023-02-09T23:58:53.483Z,96782.44
